長崎空港の過去48時間の天気

長崎空港 (Nagasaki)

現在時刻: 1/19 18:24 JST (1/19 09:24 UTC) 以下の時間は現地時間です。

過去48時間のMETAR気象情報
時間 風向 風速(m/s) 視程 気温(℃) 湿度(%) 気圧(hPa) 天気現象
19 18:00 南東 5 10km以上 10 76 1020
19 17:00 南南東 6 10km以上 11 71 1020
19 16:00 南東 4 10km以上 11 71 1020
19 15:00 南東 5 10km以上 11 71 1021
19 14:00 東南東 5 10km以上 12 67 1021
19 13:00 南東 5 10km以上 10 76 1023
19 12:00 南南東 6 10km以上 10 76 1025
19 11:00 南東 6 10km以上 10 76 1026
19 10:00 南東 5 10km以上 7 81 1026
19 09:00 南南東 4 10km以上 6 87 1026
19 08:00 南東 3 10km以上 4 93 1026
19 07:00 東南東 3 10km以上 3 93 1025
19 06:10 東南東 2 10km以上 3 87 1025
18 21:00 2 10km以上 7 76 1026
18 20:00 不定 1 10km以上 6 81 1026
18 19:00 北西 2 10km以上 7 76 1026
18 18:00 西北西 4 10km以上 9 62 1025
18 17:00 西 3 10km以上 11 58 1025
18 16:00 西北西 2 10km以上 12 54 1025
18 15:00 西 2 10km以上 11 50 1024
18 14:00 南西 3 10km以上 12 47 1024
18 13:00 西南西 3 10km以上 11 47 1025
18 12:00 不定 1 10km以上 10 54 1026
18 11:00 南南西 3 10km以上 9 62 1027
18 10:00 不定 1 10km以上 8 61 1027
18 09:00 不定 1 10km以上 5 81 1027
18 08:00 東南東 2 10km以上 4 87 1026
18 07:00 南東 3 10km以上 3 93 1025
18 06:10 南東 3 10km以上 3 93 1025
17 21:00 北西 7 10km以上 8 57 1022
17 20:00 西北西 5 10km以上 8 57 1022
17 19:00 北西 6 10km以上 7 57 1022
RJFU 190900Z 14010KT 9999 FEW050 SCT070 BKN080 10/06 Q1020
RJFU 190800Z 15012KT 9999 FEW050 BKN080 11/06 Q1020
RJFU 190700Z 14008KT CAVOK 11/06 Q1020
RJFU 190600Z 13010KT 9999 FEW050 BKN070 11/06 Q1021
RJFU 190500Z 12010KT CAVOK 12/06 Q1021
RJFU 190400Z 13010KT 9999 FEW030 SCT050 BKN060 10/06 Q1023
RJFU 190300Z 15011KT 9999 FEW030 BKN040 BKN050 10/06 Q1025
RJFU 190200Z 14012KT 9999 FEW040 SCT045 10/06 Q1026
RJFU 190100Z 14010KT 9999 FEW030 SCT040 07/04 Q1026
RJFU 190000Z 15008KT 9999 FEW030 BKN035 06/04 Q1026
RJFU 182300Z 14006KT 9999 FEW010 BKN030 04/03 Q1026
RJFU 182200Z 12006KT 9999 FEW005 SCT030 BKN/// 03/02 Q1025
RJFU 182110Z 11003KT 9999 FEW005 03/01 Q1025 RMK 1ST005 A3028
RJFU 181200Z 09004KT CAVOK 07/03 Q1026
RJFU 181100Z VRB02KT CAVOK 06/03 Q1026
RJFU 181000Z 32004KT 280V340 9999 FEW050 BKN/// 07/03 Q1026
RJFU 180900Z 29007KT 9999 FEW050 SCT/// 09/02 Q1025
RJFU 180800Z 27005KT 220V320 9999 FEW040 11/03 Q1025
RJFU 180700Z 29004KT 9999 FEW040 12/03 Q1025
RJFU 180600Z 28003KT 230V010 9999 FEW040 11/01 Q1024
RJFU 180500Z 22006KT 9999 FEW040 12/01 Q1024
RJFU 180400Z 24006KT 200V280 9999 FEW040 11/00 Q1025
RJFU 180300Z VRB02KT 9999 FEW040 10/01 Q1026
RJFU 180200Z 21005KT 9999 FEW040 09/02 Q1027
RJFU 180100Z VRB02KT 9999 FEW030 08/01 Q1027
RJFU 180000Z VRB02KT 9999 FEW030 05/02 Q1027
RJFU 172300Z 11003KT 9999 FEW030 04/02 Q1026
RJFU 172200Z 14005KT 9999 FEW030 03/02 Q1025
RJFU 172110Z 14006KT CAVOK 03/02 Q1025 RMK A3027
RJFU 171200Z 31013KT 9999 FEW040 BKN050 08/00 Q1022
RJFU 171100Z 30009KT 9999 FEW040 BKN050 08/M00 Q1022
RJFU 171000Z 31011KT 9999 FEW040 BKN050 07/M01 Q1022